createdAt,value
2018-08-03T00:00:03.533Z,10.10
2018-08-03T00:02:32.591Z,10.80
2018-08-03T00:05:01.668Z,9.50
2018-08-03T00:07:30.730Z,12.07
2018-08-03T00:09:59.547Z,9.50
2018-08-03T00:12:28.466Z,10.70
2018-08-03T00:14:57.695Z,10.43
2018-08-03T00:17:26.751Z,9.43
2018-08-03T00:19:55.803Z,8.73
2018-08-03T00:22:24.581Z,13.03
2018-08-03T00:24:53.527Z,10.70
2018-08-03T00:27:22.571Z,9.83
2018-08-03T00:29:51.626Z,10.70
2018-08-03T00:32:20.703Z,9.70
2018-08-03T00:34:49.755Z,10.17
2018-08-03T00:37:18.730Z,8.50
2018-08-03T00:39:47.651Z,11.07
2018-08-03T00:42:16.702Z,10.20
2018-08-03T00:44:45.777Z,8.70
2018-08-03T00:47:14.831Z,10.83
2018-08-03T00:49:43.901Z,10.77
2018-08-03T00:52:12.975Z,11.83
2018-08-03T00:54:42.038Z,9.73
2018-08-03T00:57:11.114Z,11.00
2018-08-03T00:59:40.174Z,8.17
2018-08-03T01:02:09.218Z,10.53
2018-08-03T01:04:38.270Z,13.13
2018-08-03T01:07:07.115Z,10.27
2018-08-03T01:09:36.050Z,14.57
2018-08-03T01:12:05.111Z,8.63
2018-08-03T01:14:35.199Z,11.03
2018-08-03T01:17:04.263Z,11.30
2018-08-03T01:19:33.318Z,11.00
2018-08-03T01:22:02.404Z,10.03
2018-08-03T01:24:31.518Z,10.93
2018-08-03T01:27:00.512Z,12.67
2018-08-03T01:29:29.607Z,11.23
2018-08-03T01:31:58.686Z,11.53
2018-08-03T01:34:27.743Z,10.10
2018-08-03T01:36:56.816Z,12.67
2018-08-03T01:39:26.091Z,10.87
2018-08-03T01:41:55.166Z,13.07
2018-08-03T01:44:24.251Z,9.90
2018-08-03T01:46:53.335Z,10.67
2018-08-03T01:49:22.438Z,12.60
2018-08-03T01:51:51.518Z,10.60
2018-08-03T01:54:20.571Z,10.97
2018-08-03T01:56:49.635Z,15.03
2018-08-03T01:59:18.699Z,13.60
2018-08-03T02:01:47.763Z,12.00
2018-08-03T02:04:16.835Z,11.07
2018-08-03T02:06:45.923Z,10.00
2018-08-03T02:09:14.975Z,13.87
2018-08-03T02:11:44.031Z,12.13
2018-08-03T02:14:13.083Z,14.83
2018-08-03T02:16:42.142Z,11.97
2018-08-03T02:19:11.191Z,11.57
2018-08-03T02:21:40.251Z,11.57
2018-08-03T02:24:09.307Z,10.93
2018-08-03T02:26:38.364Z,11.90
2018-08-03T02:29:07.430Z,12.53
2018-08-03T02:31:36.857Z,13.47
2018-08-03T02:34:05.920Z,13.33
2018-08-03T02:36:35.079Z,12.70
2018-08-03T02:39:06.563Z,11.23
2018-08-03T02:41:35.792Z,13.97
2018-08-03T02:44:04.895Z,16.77
2018-08-03T02:46:33.983Z,13.57
2018-08-03T02:49:03.268Z,15.07
2018-08-03T02:51:32.352Z,14.27
2018-08-03T02:54:01.471Z,14.73
2018-08-03T02:56:30.524Z,16.43
2018-08-03T02:58:59.592Z,15.17
2018-08-03T03:01:28.674Z,14.53
2018-08-03T03:03:57.748Z,15.63
2018-08-03T03:06:26.804Z,14.93
2018-08-03T03:08:55.930Z,16.13
2018-08-03T03:11:24.975Z,11.47
2018-08-03T03:13:54.057Z,16.07
2018-08-03T03:16:23.134Z,13.77
2018-08-03T03:18:52.264Z,13.33
2018-08-03T03:21:21.328Z,13.17
2018-08-03T03:23:50.420Z,13.23
2018-08-03T03:26:19.483Z,13.97
2018-08-03T03:28:48.544Z,18.50
2018-08-03T03:31:17.639Z,12.43
2018-08-03T03:33:46.705Z,16.93
2018-08-03T03:36:15.824Z,17.27
2018-08-03T03:38:44.883Z,15.20
2018-08-03T03:41:14.009Z,13.03
2018-08-03T03:43:43.074Z,14.53
2018-08-03T03:46:12.144Z,17.53
2018-08-03T03:48:41.195Z,14.47
2018-08-03T03:51:10.259Z,17.10
2018-08-03T03:53:39.807Z,14.07
2018-08-03T03:56:08.885Z,15.73
2018-08-03T03:58:37.966Z,16.73
2018-08-03T04:01:07.040Z,17.93
2018-08-03T04:03:36.104Z,18.27
2018-08-03T04:06:05.189Z,16.57
2018-08-03T04:08:34.251Z,18.47
2018-08-03T04:11:03.361Z,17.57
2018-08-03T04:13:32.439Z,17.00
2018-08-03T04:16:01.532Z,17.53
2018-08-03T04:18:30.599Z,15.77
2018-08-03T04:20:59.675Z,14.13
2018-08-03T04:23:28.746Z,15.97
2018-08-03T04:25:57.803Z,18.70
2018-08-03T04:28:26.864Z,17.70
2018-08-03T04:30:55.964Z,18.27
2018-08-03T04:33:25.027Z,21.57
2018-08-03T04:35:54.087Z,19.20
2018-08-03T04:38:23.171Z,17.93
2018-08-03T04:40:52.231Z,17.47
2018-08-03T04:43:21.055Z,20.30
2018-08-03T04:45:50.052Z,20.53
2018-08-03T04:48:19.115Z,19.87
2018-08-03T04:50:48.221Z,18.33
2018-08-03T04:53:17.295Z,20.23
2018-08-03T04:55:46.363Z,17.40
2018-08-03T04:58:15.431Z,19.03
2018-08-03T05:00:44.490Z,20.37
2018-08-03T05:03:13.566Z,16.33
2018-08-03T05:05:42.625Z,17.77
2018-08-03T05:08:11.708Z,16.40
2018-08-03T05:10:40.786Z,18.70
2018-08-03T05:13:09.859Z,14.90
2018-08-03T05:15:38.971Z,15.23
2018-08-03T05:18:08.170Z,18.97
2018-08-03T05:20:37.247Z,17.27
2018-08-03T05:23:06.472Z,16.70
2018-08-03T05:25:35.539Z,15.90
2018-08-03T05:28:04.520Z,18.03
2018-08-03T05:30:33.443Z,16.20
2018-08-03T05:33:02.528Z,18.10
2018-08-03T05:35:31.706Z,24.47
2018-08-03T05:38:00.675Z,23.23
2018-08-03T05:40:29.757Z,17.37
2018-08-03T05:42:58.832Z,17.00
2018-08-03T05:45:27.912Z,19.97
2018-08-03T05:47:56.967Z,22.97
2018-08-03T05:50:26.044Z,22.67
2018-08-03T05:52:55.134Z,19.67
2018-08-03T05:55:24.235Z,20.90
2018-08-03T05:57:53.364Z,20.93
2018-08-03T06:00:22.400Z,21.50
2018-08-03T06:02:51.498Z,23.93
2018-08-03T06:05:20.582Z,22.47
2018-08-03T06:07:49.659Z,20.73
2018-08-03T06:10:18.482Z,19.10
2018-08-03T06:12:47.431Z,20.20
2018-08-03T06:15:16.505Z,19.60
2018-08-03T06:17:45.603Z,20.13
2018-08-03T06:20:14.675Z,18.87
2018-08-03T06:22:43.732Z,16.97
2018-08-03T06:25:12.810Z,17.40
2018-08-03T06:27:41.901Z,18.53
2018-08-03T06:30:12.160Z,19.90
2018-08-03T06:32:41.247Z,17.97
2018-08-03T06:35:10.543Z,15.93
2018-08-03T06:37:39.655Z,14.93
2018-08-03T06:40:08.752Z,17.80
2018-08-03T06:42:37.926Z,16.97
2018-08-03T06:45:06.992Z,17.40
2018-08-03T06:47:36.104Z,14.80
2018-08-03T06:50:05.444Z,14.87
2018-08-03T06:52:34.518Z,17.37
2018-08-03T06:55:04.026Z,15.07
2018-08-03T06:57:33.144Z,15.83
2018-08-03T07:00:02.206Z,14.57
2018-08-03T07:02:31.305Z,12.80
2018-08-03T07:05:00.363Z,16.43
2018-08-03T07:07:29.499Z,14.13
2018-08-03T07:09:58.974Z,14.80
2018-08-03T07:12:28.071Z,14.37
2018-08-03T07:14:57.189Z,10.97
2018-08-03T07:17:26.213Z,11.87
2018-08-03T07:19:55.353Z,12.13
2018-08-03T07:22:24.127Z,13.53
2018-08-03T07:24:53.162Z,11.67
2018-08-03T07:27:22.224Z,11.60
2018-08-03T07:29:51.429Z,8.20
2018-08-03T07:32:20.562Z,10.97
2018-08-03T07:34:49.627Z,9.60
2018-08-03T07:37:18.687Z,8.83
2018-08-03T07:39:47.747Z,10.93
2018-08-03T07:42:16.812Z,11.03
2018-08-03T07:44:46.086Z,10.03
2018-08-03T07:47:15.324Z,11.07
2018-08-03T07:49:44.372Z,7.93
2018-08-03T07:52:13.455Z,9.87
2018-08-03T07:54:42.515Z,11.93
2018-08-03T07:57:11.577Z,7.97
2018-08-03T07:59:40.668Z,8.70
2018-08-03T08:02:09.712Z,8.97
2018-08-03T08:04:38.764Z,6.73
2018-08-03T08:07:07.826Z,6.80
2018-08-03T08:09:36.944Z,7.13
2018-08-03T08:12:05.947Z,6.67
2018-08-03T08:14:35.088Z,7.97
2018-08-03T08:17:04.234Z,4.87
2018-08-03T08:19:33.272Z,7.53
2018-08-03T08:22:02.357Z,7.27
2018-08-03T08:24:31.418Z,7.17
2018-08-03T08:27:00.497Z,5.23
2018-08-03T08:29:29.575Z,8.20
2018-08-03T08:31:58.643Z,7.37
2018-08-03T08:34:27.723Z,8.87
2018-08-03T08:36:57.010Z,4.90
2018-08-03T08:39:26.022Z,6.10
2018-08-03T08:41:55.084Z,8.30
2018-08-03T08:44:24.143Z,4.17
2018-08-03T08:46:53.196Z,8.37
2018-08-03T08:49:22.374Z,7.07
2018-08-03T08:51:51.423Z,7.57
2018-08-03T08:54:20.507Z,5.57
2018-08-03T08:56:49.322Z,10.13
2018-08-03T08:59:18.259Z,7.20
2018-08-03T09:01:47.346Z,5.27
2018-08-03T09:04:16.386Z,6.43
2018-08-03T09:06:45.450Z,9.13
2018-08-03T09:09:14.562Z,4.83
2018-08-03T09:11:43.617Z,6.10
2018-08-03T09:14:12.696Z,9.10
2018-08-03T09:16:41.782Z,4.80
2018-08-03T09:19:10.818Z,4.63
2018-08-03T09:21:39.926Z,5.30
2018-08-03T09:24:09.027Z,4.60
2018-08-03T09:26:38.083Z,5.90
2018-08-03T09:29:07.123Z,6.23
2018-08-03T09:31:36.198Z,4.77
2018-08-03T09:34:05.232Z,5.20
2018-08-03T09:36:34.342Z,5.03
2018-08-03T09:39:04.592Z,4.77
2018-08-03T09:41:33.731Z,5.43
2018-08-03T09:44:02.809Z,4.90
2018-08-03T09:46:31.927Z,7.43
2018-08-03T09:49:00.974Z,4.63
2018-08-03T09:51:30.028Z,4.07
2018-08-03T09:53:59.065Z,3.30
2018-08-03T09:56:28.119Z,3.57
2018-08-03T09:58:57.194Z,3.30
2018-08-03T10:01:26.248Z,5.73
2018-08-03T10:03:55.354Z,4.17
2018-08-03T10:06:24.398Z,4.27
2018-08-03T10:08:53.463Z,2.17
2018-08-03T10:11:22.526Z,3.43
2018-08-03T10:13:51.613Z,4.57
2018-08-03T10:16:20.667Z,3.30
2018-08-03T10:18:49.745Z,2.60
2018-08-03T10:21:18.838Z,2.93
2018-08-03T10:23:47.903Z,3.67
2018-08-03T10:26:16.975Z,5.57
2018-08-03T10:28:46.032Z,3.93
2018-08-03T10:31:15.159Z,2.93
2018-08-03T10:33:43.942Z,3.57
2018-08-03T10:36:12.876Z,4.00
2018-08-03T10:38:42.044Z,5.97
2018-08-03T10:41:10.946Z,4.33
2018-08-03T10:43:39.898Z,4.83
2018-08-03T10:46:08.995Z,8.00
2018-08-03T10:48:38.110Z,4.47
2018-08-03T10:51:07.495Z,4.67
2018-08-03T10:53:36.559Z,3.50
2018-08-03T10:56:05.637Z,3.93
2018-08-03T10:58:34.699Z,3.10
2018-08-03T11:01:03.802Z,2.97
2018-08-03T11:03:32.866Z,4.97
2018-08-03T11:06:01.917Z,2.83
2018-08-03T11:08:30.979Z,3.67
2018-08-03T11:11:00.050Z,5.13
2018-08-03T11:13:29.135Z,4.70
2018-08-03T11:15:58.203Z,6.47
2018-08-03T11:18:27.259Z,4.27
2018-08-03T11:20:56.315Z,4.87
2018-08-03T11:23:25.402Z,4.13
2018-08-03T11:25:54.529Z,4.23
2018-08-03T11:28:23.602Z,5.33
2018-08-03T11:30:52.676Z,5.13
2018-08-03T11:33:21.723Z,4.63
2018-08-03T11:35:50.801Z,5.60
2018-08-03T11:38:19.859Z,3.53
2018-08-03T11:40:48.929Z,4.43
2018-08-03T11:43:17.980Z,4.77
2018-08-03T11:45:47.038Z,3.97
2018-08-03T11:48:16.150Z,3.90
2018-08-03T11:50:45.199Z,6.80
2018-08-03T11:53:14.316Z,6.67
2018-08-03T11:55:43.370Z,5.17
2018-08-03T11:58:12.435Z,8.40
2018-08-03T12:00:41.581Z,3.50
2018-08-03T12:03:10.584Z,8.47
2018-08-03T12:05:39.657Z,6.90
2018-08-03T12:08:08.712Z,5.53
2018-08-03T12:10:37.800Z,7.63
2018-08-03T12:13:06.851Z,5.10
2018-08-03T12:15:35.904Z,10.67
2018-08-03T12:18:04.988Z,4.43
2018-08-03T12:20:34.064Z,7.43
2018-08-03T12:23:03.119Z,5.10
2018-08-03T12:25:32.167Z,6.67
2018-08-03T12:28:01.243Z,5.97
2018-08-03T12:30:30.419Z,8.50
2018-08-03T12:32:59.740Z,6.40
2018-08-03T12:35:28.794Z,3.97
2018-08-03T12:37:58.005Z,5.13
2018-08-03T12:40:27.079Z,5.40
2018-08-03T12:42:56.147Z,5.03
2018-08-03T12:45:33.834Z,4.27
2018-08-03T12:47:54.334Z,4.73
2018-08-03T12:50:23.452Z,6.17
2018-08-03T12:52:52.691Z,5.23
2018-08-03T12:55:21.700Z,4.40
2018-08-03T12:57:50.782Z,3.43
2018-08-03T13:00:19.835Z,6.17
2018-08-03T13:02:48.902Z,3.27
2018-08-03T13:05:18.046Z,7.63
2018-08-03T13:07:47.185Z,7.03
2018-08-03T13:10:15.935Z,3.73
2018-08-03T13:12:44.892Z,5.83
2018-08-03T13:15:13.959Z,5.43
2018-08-03T13:17:43.016Z,5.20
2018-08-03T13:20:12.067Z,4.70
2018-08-03T13:22:41.114Z,4.87
2018-08-03T13:25:10.199Z,6.57
2018-08-03T13:27:39.276Z,6.53
2018-08-03T13:30:08.351Z,4.17
2018-08-03T13:32:37.403Z,3.47
2018-08-03T13:35:06.638Z,3.37
2018-08-03T13:37:35.745Z,4.87
2018-08-03T13:40:04.900Z,3.73
2018-08-03T13:42:33.948Z,4.60
2018-08-03T13:45:02.999Z,5.40
2018-08-03T13:47:32.094Z,2.87
2018-08-03T13:50:01.165Z,3.10
2018-08-03T13:52:30.226Z,6.03
2018-08-03T13:54:59.322Z,6.13
2018-08-03T13:57:28.408Z,2.67
2018-08-03T13:59:57.536Z,2.80
2018-08-03T14:02:27.801Z,4.50
2018-08-03T14:04:57.315Z,4.10
2018-08-03T14:07:27.423Z,3.27
2018-08-03T14:09:56.475Z,3.73
2018-08-03T14:12:45.491Z,2.93
2018-08-03T14:16:08.628Z,4.00
2018-08-03T14:18:57.067Z,4.13
2018-08-03T14:21:26.387Z,3.33
2018-08-03T14:23:55.453Z,2.47
2018-08-03T14:26:24.517Z,2.63
2018-08-03T14:28:53.587Z,2.90
2018-08-03T14:31:22.644Z,4.80
2018-08-03T14:33:51.747Z,3.77
2018-08-03T14:36:20.813Z,3.47
2018-08-03T14:38:49.966Z,3.63
2018-08-03T14:41:18.995Z,2.83
2018-08-03T14:43:48.082Z,3.73
2018-08-03T14:46:17.168Z,2.73
2018-08-03T14:48:46.224Z,3.10
2018-08-03T14:51:15.408Z,3.10
2018-08-03T14:53:44.521Z,3.07
2018-08-03T14:56:13.620Z,3.60
2018-08-03T14:58:42.704Z,3.70
2018-08-03T15:01:11.787Z,2.87
2018-08-03T15:03:40.843Z,4.17
2018-08-03T15:06:09.900Z,2.47
2018-08-03T15:08:38.992Z,2.37
2018-08-03T15:11:08.051Z,4.83
2018-08-03T15:13:37.098Z,3.53
2018-08-03T15:16:06.348Z,2.90
2018-08-03T15:18:35.604Z,4.53
2018-08-03T15:21:04.908Z,2.83
2018-08-03T15:23:33.986Z,2.43
2018-08-03T15:26:03.048Z,2.30
2018-08-03T15:28:32.131Z,4.30
2018-08-03T15:31:01.178Z,3.73
2018-08-03T15:33:30.231Z,2.40
2018-08-03T15:35:59.291Z,2.07
2018-08-03T15:38:28.355Z,2.47
2018-08-03T15:40:57.544Z,7.83
2018-08-03T15:43:26.564Z,2.83
2018-08-03T15:45:55.616Z,1.50
2018-08-03T15:48:24.691Z,3.00
2018-08-03T15:50:53.778Z,1.73
2018-08-03T15:53:22.838Z,1.53
2018-08-03T15:55:51.898Z,2.03
2018-08-03T15:58:20.987Z,3.20
2018-08-03T16:00:50.052Z,1.30
2018-08-03T16:03:19.124Z,2.63
2018-08-03T16:05:48.183Z,1.27
2018-08-03T16:08:17.261Z,1.87
2018-08-03T16:10:46.417Z,2.70
2018-08-03T16:13:15.543Z,2.50
2018-08-03T16:15:44.608Z,3.97
2018-08-03T16:18:13.664Z,1.73
2018-08-03T16:20:42.730Z,3.50
2018-08-03T16:23:11.816Z,4.87
2018-08-03T16:25:40.903Z,2.30
2018-08-03T16:28:09.919Z,3.27
2018-08-03T16:30:38.980Z,2.77
2018-08-03T16:33:08.061Z,2.67
2018-08-03T16:35:37.134Z,2.73
2018-08-03T16:38:06.190Z,1.83
2018-08-03T16:40:35.259Z,3.70
2018-08-03T16:43:04.291Z,1.70
2018-08-03T16:45:33.379Z,1.67
2018-08-03T16:48:02.451Z,1.67
2018-08-03T16:50:31.510Z,2.93
2018-08-03T16:53:00.571Z,2.43
2018-08-03T16:55:29.658Z,1.50
2018-08-03T16:57:58.766Z,2.07
2018-08-03T17:00:27.839Z,2.30
2018-08-03T17:02:56.913Z,2.80
2018-08-03T17:05:25.991Z,2.63
2018-08-03T17:07:54.774Z,2.73
2018-08-03T17:10:23.473Z,1.90
2018-08-03T17:12:52.110Z,3.63
2018-08-03T17:15:21.037Z,1.60
2018-08-03T17:17:49.662Z,3.23
2018-08-03T17:20:18.403Z,1.53
2018-08-03T17:22:47.308Z,1.43
2018-08-03T17:25:16.375Z,1.53
2018-08-03T17:27:45.459Z,2.00
2018-08-03T17:30:14.539Z,3.20
2018-08-03T17:32:43.602Z,3.30
2018-08-03T17:35:12.724Z,1.47
2018-08-03T17:37:42.842Z,2.93
2018-08-03T17:40:11.985Z,1.93
2018-08-03T17:42:40.907Z,2.93
2018-08-03T17:45:09.838Z,1.73
2018-08-03T17:47:38.986Z,2.07
2018-08-03T17:50:08.059Z,1.70
2018-08-03T17:52:37.168Z,3.70
2018-08-03T17:55:06.214Z,1.30
2018-08-03T17:57:35.266Z,2.13
2018-08-03T18:00:04.521Z,2.43
2018-08-03T18:02:33.579Z,3.00
2018-08-03T18:05:02.743Z,3.20
2018-08-03T18:07:31.792Z,2.93
2018-08-03T18:10:00.842Z,2.30
2018-08-03T18:12:29.886Z,3.37
2018-08-03T18:14:58.946Z,3.33
2018-08-03T18:17:28.008Z,2.43
2018-08-03T18:19:57.094Z,2.00
2018-08-03T18:22:26.167Z,2.43
2018-08-03T18:24:55.215Z,1.90
2018-08-03T18:27:24.350Z,2.30
2018-08-03T18:29:53.408Z,3.43
2018-08-03T18:32:22.490Z,1.70
2018-08-03T18:34:51.552Z,3.07
2018-08-03T18:37:20.474Z,2.43
2018-08-03T18:39:49.465Z,3.03
2018-08-03T18:42:18.623Z,1.93
2018-08-03T18:44:47.680Z,1.83
2018-08-03T18:47:16.742Z,2.83
2018-08-03T18:49:45.785Z,2.67
2018-08-03T18:52:14.879Z,1.70
2018-08-03T18:54:43.916Z,3.57
2018-08-03T18:57:13.009Z,3.73
2018-08-03T18:59:42.069Z,2.70
2018-08-03T19:02:11.120Z,2.30
2018-08-03T19:04:40.188Z,2.47
2018-08-03T19:07:09.242Z,3.07
2018-08-03T19:09:38.288Z,3.00
2018-08-03T19:12:07.379Z,2.13
2018-08-03T19:14:36.423Z,2.63
2018-08-03T19:17:05.498Z,3.90
2018-08-03T19:19:34.606Z,2.60
2018-08-03T19:22:03.823Z,3.63
2018-08-03T19:24:32.808Z,1.70
2018-08-03T19:27:01.880Z,3.03
2018-08-03T19:29:30.922Z,5.27
2018-08-03T19:32:00.322Z,3.70
2018-08-03T19:34:29.126Z,4.00
2018-08-03T19:36:58.046Z,4.13
2018-08-03T19:39:27.090Z,4.97
2018-08-03T19:41:56.296Z,2.70
2018-08-03T19:44:25.335Z,4.13
2018-08-03T19:46:54.462Z,1.97
2018-08-03T19:49:23.309Z,4.53
2018-08-03T19:51:52.323Z,4.67
2018-08-03T19:54:21.382Z,7.17
2018-08-03T19:56:50.448Z,4.03
2018-08-03T19:59:19.559Z,3.20
2018-08-03T20:01:48.628Z,2.63
2018-08-03T20:04:17.683Z,3.30
2018-08-03T20:06:46.466Z,3.93
2018-08-03T20:09:15.415Z,2.10
2018-08-03T20:11:44.536Z,5.10
2018-08-03T20:14:13.600Z,5.37
2018-08-03T20:16:42.694Z,3.97
2018-08-03T20:19:11.759Z,3.17
2018-08-03T20:21:40.790Z,3.73
2018-08-03T20:24:09.834Z,4.07
2018-08-03T20:26:38.901Z,2.53
2018-08-03T20:29:07.959Z,2.40
2018-08-03T20:31:37.053Z,2.70
2018-08-03T20:34:06.459Z,3.57
2018-08-03T20:36:35.571Z,3.20
2018-08-03T20:39:07.488Z,3.40
2018-08-03T20:41:36.491Z,3.77
2018-08-03T20:44:05.682Z,5.00
2018-08-03T20:46:34.482Z,4.27
2018-08-03T20:49:03.411Z,2.07
2018-08-03T20:51:32.526Z,6.40
2018-08-03T20:54:01.610Z,3.57
2018-08-03T20:56:30.659Z,4.23
2018-08-03T20:58:59.715Z,3.77
2018-08-03T21:01:28.762Z,5.97
2018-08-03T21:03:57.843Z,4.37
2018-08-03T21:06:26.906Z,6.10
2018-08-03T21:08:55.986Z,3.57
2018-08-03T21:11:25.221Z,3.53
2018-08-03T21:13:54.256Z,2.50
2018-08-03T21:16:23.340Z,4.20
2018-08-03T21:18:52.368Z,4.00
2018-08-03T21:21:21.413Z,2.63
2018-08-03T21:23:50.479Z,4.70
2018-08-03T21:26:19.298Z,2.83
2018-08-03T21:28:48.247Z,3.87
2018-08-03T21:31:17.308Z,2.33
2018-08-03T21:33:46.451Z,1.30
2018-08-03T21:36:15.694Z,2.00
2018-08-03T21:38:44.730Z,3.23
2018-08-03T21:41:13.930Z,4.77
2018-08-03T21:43:43.046Z,4.07
2018-08-03T21:46:12.160Z,3.50
2018-08-03T21:48:41.237Z,2.57
2018-08-03T21:51:10.418Z,2.00
2018-08-03T21:53:39.483Z,2.43
2018-08-03T21:56:08.554Z,2.93
2018-08-03T21:58:37.625Z,2.93
2018-08-03T22:01:09.074Z,4.37
2018-08-03T22:03:37.878Z,4.63
2018-08-03T22:06:06.848Z,4.23
2018-08-03T22:08:35.894Z,4.43
2018-08-03T22:11:05.003Z,6.17
2018-08-03T22:13:34.068Z,2.90
2018-08-03T22:16:03.151Z,2.47
2018-08-03T22:18:32.198Z,3.37
2018-08-03T22:21:01.419Z,3.67
2018-08-03T22:23:30.450Z,3.10
2018-08-03T22:25:59.514Z,3.13
2018-08-03T22:28:28.570Z,2.63
2018-08-03T22:30:57.637Z,2.80
2018-08-03T22:33:26.709Z,3.60
2018-08-03T22:35:55.598Z,3.93
2018-08-03T22:38:24.550Z,3.80
2018-08-03T22:40:53.590Z,4.40
2018-08-03T22:43:22.650Z,5.00
2018-08-03T22:45:51.744Z,3.27
2018-08-03T22:48:20.786Z,2.77
2018-08-03T22:50:49.863Z,3.73
2018-08-03T22:53:18.944Z,5.13
2018-08-03T22:55:48.018Z,3.57
2018-08-03T22:58:17.123Z,5.87
2018-08-03T23:00:46.187Z,3.57
2018-08-03T23:03:15.307Z,3.37
2018-08-03T23:05:44.415Z,4.27
2018-08-03T23:08:13.539Z,3.40
2018-08-03T23:10:42.538Z,4.43
2018-08-03T23:13:11.628Z,3.93
2018-08-03T23:15:40.676Z,3.47
2018-08-03T23:18:09.759Z,3.30
2018-08-03T23:20:38.802Z,3.43
2018-08-03T23:23:07.847Z,7.03
2018-08-03T23:25:36.908Z,4.07
2018-08-03T23:28:05.947Z,4.93
2018-08-03T23:30:35.008Z,5.23
2018-08-03T23:33:04.071Z,4.30
2018-08-03T23:35:33.136Z,4.63
2018-08-03T23:38:02.387Z,3.90
2018-08-03T23:40:31.464Z,4.40
2018-08-03T23:43:00.526Z,3.30
2018-08-03T23:45:29.627Z,5.90
2018-08-03T23:47:58.691Z,3.50
2018-08-03T23:50:27.760Z,4.57
2018-08-03T23:52:56.823Z,3.27
2018-08-03T23:55:25.874Z,3.30
2018-08-03T23:57:54.937Z,4.60
